createdAt,value
2022-11-27T00:00:01.603Z,7.07
2022-11-27T00:01:01.573Z,7.08
2022-11-27T00:02:01.595Z,7.08
2022-11-27T00:03:01.633Z,7.07
2022-11-27T00:04:01.746Z,7.07
2022-11-27T00:05:01.513Z,7.08
2022-11-27T00:06:01.552Z,7.08
2022-11-27T00:07:01.773Z,7.08
2022-11-27T00:08:01.560Z,7.10
2022-11-27T00:09:01.484Z,7.08
2022-11-27T00:10:02.429Z,7.07
2022-11-27T00:11:01.496Z,7.07
2022-11-27T00:12:02.438Z,7.08
2022-11-27T00:13:01.457Z,7.07
2022-11-27T00:14:02.435Z,7.07
2022-11-27T00:15:01.424Z,7.07
2022-11-27T00:16:01.488Z,7.05
2022-11-27T00:17:01.439Z,7.07
2022-11-27T00:18:01.381Z,7.05
2022-11-27T00:19:01.617Z,7.07
2022-11-27T00:20:01.349Z,7.05
2022-11-27T00:21:01.372Z,7.05
2022-11-27T00:22:01.386Z,7.04
2022-11-27T00:23:01.360Z,7.05
2022-11-27T00:24:01.310Z,7.04
2022-11-27T00:25:01.325Z,7.04
2022-11-27T00:26:01.301Z,7.03
2022-11-27T00:27:01.315Z,7.03
2022-11-27T00:28:01.327Z,7.03
2022-11-27T00:29:01.333Z,7.04
2022-11-27T00:30:01.280Z,7.04
2022-11-27T00:31:01.344Z,7.04
2022-11-27T00:32:01.341Z,7.05
2022-11-27T00:33:01.265Z,7.04
2022-11-27T00:34:01.187Z,7.04
2022-11-27T00:35:01.205Z,7.03
2022-11-27T00:36:01.209Z,7.03
2022-11-27T00:37:01.186Z,7.00
2022-11-27T00:38:01.216Z,6.97
2022-11-27T00:39:01.262Z,7.00
2022-11-27T00:40:02.111Z,6.96
2022-11-27T00:41:01.207Z,6.95
2022-11-27T00:42:01.167Z,6.92
2022-11-27T00:43:01.124Z,6.93
2022-11-27T00:44:01.115Z,6.89
2022-11-27T00:45:01.401Z,6.89
2022-11-27T00:46:01.176Z,6.89
2022-11-27T00:47:01.306Z,6.86
2022-11-27T00:48:01.038Z,6.83
2022-11-27T00:49:01.139Z,6.85
2022-11-27T00:50:01.008Z,6.83
2022-11-27T00:51:01.048Z,6.82
2022-11-27T00:52:01.102Z,6.82
2022-11-27T00:53:01.013Z,6.78
2022-11-27T00:54:01.555Z,6.78
2022-11-27T00:55:01.054Z,6.80
2022-11-27T00:56:00.942Z,6.80
2022-11-27T00:57:00.945Z,6.77
2022-11-27T00:58:00.967Z,6.74
2022-11-27T00:59:00.983Z,6.74
2022-11-27T01:00:00.958Z,6.71
2022-11-27T01:01:00.908Z,6.71
2022-11-27T01:02:00.940Z,6.72
2022-11-27T01:03:00.970Z,6.71
2022-11-27T01:04:00.852Z,6.71
2022-11-27T01:05:00.857Z,6.70
2022-11-27T01:06:00.831Z,6.68
2022-11-27T01:07:00.839Z,6.67
2022-11-27T01:08:00.886Z,6.68
2022-11-27T01:09:00.814Z,6.67
2022-11-27T01:10:00.824Z,6.65
2022-11-27T01:11:00.824Z,6.67
2022-11-27T01:12:00.812Z,6.67
2022-11-27T01:13:00.787Z,6.65
2022-11-27T01:14:00.744Z,6.62
2022-11-27T01:15:00.805Z,6.65
2022-11-27T01:16:00.753Z,6.62
2022-11-27T01:17:00.721Z,6.62
2022-11-27T01:18:00.718Z,6.59
2022-11-27T01:19:00.769Z,6.60
2022-11-27T01:20:00.709Z,6.60
2022-11-27T01:21:00.737Z,6.62
2022-11-27T01:22:00.650Z,6.57
2022-11-27T01:23:00.673Z,6.56
2022-11-27T01:24:00.690Z,6.59
2022-11-27T01:25:00.638Z,6.56
2022-11-27T01:26:00.651Z,6.57
2022-11-27T01:27:00.659Z,6.59
2022-11-27T01:28:00.598Z,6.56
2022-11-27T01:29:00.678Z,6.56
2022-11-27T01:30:00.678Z,6.54
2022-11-27T01:31:00.653Z,6.54
2022-11-27T01:32:00.542Z,6.54
2022-11-27T01:33:00.613Z,6.54
2022-11-27T01:34:00.534Z,6.54
2022-11-27T01:35:00.582Z,6.53
2022-11-27T01:36:00.559Z,6.52
2022-11-27T01:37:00.557Z,6.49
2022-11-27T01:38:00.489Z,6.47
2022-11-27T01:39:00.575Z,6.47
2022-11-27T01:40:00.506Z,6.47
2022-11-27T01:41:00.456Z,6.44
2022-11-27T01:42:00.459Z,6.44
2022-11-27T01:43:00.526Z,6.46
2022-11-27T01:44:00.430Z,6.46
2022-11-27T01:45:00.417Z,6.44
2022-11-27T01:46:00.426Z,6.44
2022-11-27T01:47:00.561Z,6.43
2022-11-27T01:48:00.392Z,6.43
2022-11-27T01:49:00.362Z,6.39
2022-11-27T01:50:00.338Z,6.39
2022-11-27T01:51:00.361Z,6.38
2022-11-27T01:52:00.397Z,6.38
2022-11-27T01:53:00.334Z,6.38
2022-11-27T01:54:00.295Z,6.38
2022-11-27T01:55:00.306Z,6.36
2022-11-27T01:56:00.291Z,6.36
2022-11-27T01:57:00.322Z,6.36
2022-11-27T01:58:00.256Z,6.38
2022-11-27T01:59:00.251Z,6.36
2022-11-27T02:00:00.242Z,6.36
2022-11-27T02:01:00.221Z,6.36
2022-11-27T02:02:00.303Z,6.38
2022-11-27T02:03:00.291Z,6.34
2022-11-27T02:04:00.238Z,6.34
2022-11-27T02:05:00.240Z,6.34
2022-11-27T02:06:00.206Z,6.35
2022-11-27T02:07:00.223Z,6.34
2022-11-27T02:08:00.239Z,6.34
2022-11-27T02:09:00.156Z,6.34
2022-11-27T02:10:00.140Z,6.34
2022-11-27T02:11:00.452Z,6.34
2022-11-27T02:12:00.148Z,6.34
2022-11-27T02:13:00.126Z,6.32
2022-11-27T02:14:00.128Z,6.31
2022-11-27T02:15:00.139Z,6.29
2022-11-27T02:16:00.181Z,6.32
2022-11-27T02:17:00.106Z,6.31
2022-11-27T02:18:00.019Z,6.31
2022-11-27T02:19:00.036Z,6.31
2022-11-27T02:20:00.007Z,6.29
2022-11-27T02:21:00.009Z,6.26
2022-11-27T02:22:00.739Z,6.26
2022-11-27T02:22:59.984Z,6.26
2022-11-27T02:23:59.961Z,6.28
2022-11-27T02:24:59.969Z,6.29
2022-11-27T02:25:59.982Z,6.28
2022-11-27T02:26:59.961Z,6.28
2022-11-27T02:28:00.022Z,6.26
2022-11-27T02:28:59.956Z,6.25
2022-11-27T02:29:59.954Z,6.25
2022-11-27T02:30:59.923Z,6.25
2022-11-27T02:31:59.898Z,6.22
2022-11-27T02:32:59.912Z,6.22
2022-11-27T02:33:59.901Z,6.20
2022-11-27T02:34:59.854Z,6.20
2022-11-27T02:35:59.878Z,6.19
2022-11-27T02:36:59.821Z,6.19
2022-11-27T02:37:59.857Z,6.17
2022-11-27T02:38:59.800Z,6.17
2022-11-27T02:39:59.791Z,6.15
2022-11-27T02:40:59.808Z,6.13
2022-11-27T02:41:59.821Z,6.10
2022-11-27T02:42:59.769Z,6.09
2022-11-27T02:43:59.759Z,6.10
2022-11-27T02:44:59.734Z,6.10
2022-11-27T02:45:59.781Z,6.10
2022-11-27T02:46:59.849Z,6.10
2022-11-27T02:47:59.738Z,6.09
2022-11-27T02:48:59.773Z,6.10
2022-11-27T02:49:59.855Z,6.09
2022-11-27T02:50:59.730Z,6.07
2022-11-27T02:51:59.750Z,6.06
2022-11-27T02:52:59.683Z,6.05
2022-11-27T02:53:59.767Z,6.02
2022-11-27T02:54:59.624Z,6.01
2022-11-27T02:55:59.678Z,5.99
2022-11-27T02:56:59.745Z,5.99
2022-11-27T02:57:59.739Z,5.98
2022-11-27T02:58:59.645Z,5.98
2022-11-27T02:59:59.578Z,5.97
2022-11-27T03:00:59.647Z,5.97
2022-11-27T03:01:59.710Z,5.92
2022-11-27T03:02:59.629Z,5.94
2022-11-27T03:03:59.582Z,5.92
2022-11-27T03:04:59.526Z,5.92
2022-11-27T03:05:59.544Z,5.91
2022-11-27T03:06:59.490Z,5.90
2022-11-27T03:07:59.721Z,5.91
2022-11-27T03:08:59.541Z,5.91
2022-11-27T03:09:59.490Z,5.90
2022-11-27T03:10:59.450Z,5.87
2022-11-27T03:12:00.556Z,5.84
2022-11-27T03:12:59.445Z,5.83
2022-11-27T03:13:59.385Z,5.84
2022-11-27T03:14:59.392Z,5.84
2022-11-27T03:15:59.500Z,5.81
2022-11-27T03:16:59.402Z,5.79
2022-11-27T03:17:59.704Z,5.77
2022-11-27T03:18:59.353Z,5.76
2022-11-27T03:19:59.376Z,5.76
2022-11-27T03:20:59.349Z,5.74
2022-11-27T03:21:59.296Z,5.73
2022-11-27T03:22:59.307Z,5.72
2022-11-27T03:23:59.305Z,5.70
2022-11-27T03:24:59.338Z,5.70
2022-11-27T03:25:59.269Z,5.69
2022-11-27T03:26:59.275Z,5.65
2022-11-27T03:27:59.251Z,5.64
2022-11-27T03:28:59.268Z,5.65
2022-11-27T03:29:59.228Z,5.64
2022-11-27T03:30:59.319Z,5.65
2022-11-27T03:31:59.185Z,5.62
2022-11-27T03:32:59.241Z,5.59
2022-11-27T03:33:59.226Z,5.59
2022-11-27T03:34:59.173Z,5.59
2022-11-27T03:35:59.168Z,5.58
2022-11-27T03:36:59.166Z,5.58
2022-11-27T03:37:59.141Z,5.56
2022-11-27T03:38:59.182Z,5.55
2022-11-27T03:39:59.116Z,5.52
2022-11-27T03:40:59.205Z,5.51
2022-11-27T03:41:59.125Z,5.49
2022-11-27T03:42:59.115Z,5.51
2022-11-27T03:43:59.087Z,5.49
2022-11-27T03:44:59.114Z,5.49
2022-11-27T03:45:59.082Z,5.49
2022-11-27T03:46:59.105Z,5.47
2022-11-27T03:47:59.181Z,5.46
2022-11-27T03:48:59.048Z,5.43
2022-11-27T03:49:59.009Z,5.43
2022-11-27T03:50:59.087Z,5.41
2022-11-27T03:51:59.001Z,5.38
2022-11-27T03:52:59.088Z,5.40
2022-11-27T03:53:58.969Z,5.37
2022-11-27T03:54:58.952Z,5.37
2022-11-27T03:55:58.985Z,5.36
2022-11-27T03:56:58.978Z,5.34
2022-11-27T03:57:58.893Z,5.33
2022-11-27T03:58:58.937Z,5.33
2022-11-27T03:59:58.874Z,5.33
2022-11-27T04:00:59.139Z,5.33
2022-11-27T04:01:58.879Z,5.34
2022-11-27T04:02:58.855Z,5.33
2022-11-27T04:03:58.889Z,5.34
2022-11-27T04:04:58.862Z,5.31
2022-11-27T04:05:58.800Z,5.29
2022-11-27T04:06:58.804Z,5.29
2022-11-27T04:07:58.844Z,5.29
2022-11-27T04:08:58.813Z,5.33
2022-11-27T04:09:58.817Z,5.33
2022-11-27T04:10:58.761Z,5.33
2022-11-27T04:11:58.744Z,5.34
2022-11-27T04:12:58.734Z,5.33
2022-11-27T04:13:58.760Z,5.29
2022-11-27T04:14:58.744Z,5.29
2022-11-27T04:15:58.779Z,5.28
2022-11-27T04:16:58.701Z,5.28
2022-11-27T04:17:58.680Z,5.25
2022-11-27T04:18:58.703Z,5.23
2022-11-27T04:19:58.693Z,5.22
2022-11-27T04:20:58.714Z,5.20
2022-11-27T04:21:58.694Z,5.20
2022-11-27T04:22:58.613Z,5.19
2022-11-27T04:23:58.621Z,5.19
2022-11-27T04:24:58.627Z,5.18
2022-11-27T04:25:58.602Z,5.16
2022-11-27T04:26:58.585Z,5.18
2022-11-27T04:27:58.620Z,5.18
2022-11-27T04:28:58.542Z,5.16
2022-11-27T04:29:58.549Z,5.15
2022-11-27T04:30:58.650Z,5.13
2022-11-27T04:31:58.525Z,5.12
2022-11-27T04:32:58.497Z,5.13
2022-11-27T04:33:58.509Z,5.13
2022-11-27T04:34:58.525Z,5.12
2022-11-27T04:35:58.527Z,5.12
2022-11-27T04:36:58.461Z,5.10
2022-11-27T04:37:58.477Z,5.08
2022-11-27T04:38:58.435Z,5.08
2022-11-27T04:39:58.475Z,5.10
2022-11-27T04:40:58.414Z,5.12
2022-11-27T04:41:58.411Z,5.12
2022-11-27T04:42:58.395Z,5.12
2022-11-27T04:43:58.386Z,5.12
2022-11-27T04:44:58.402Z,5.12
2022-11-27T04:45:58.378Z,5.13
2022-11-27T04:46:58.435Z,5.12
2022-11-27T04:47:58.345Z,5.12
2022-11-27T04:48:58.331Z,5.08
2022-11-27T04:49:58.339Z,5.07
2022-11-27T04:50:58.369Z,5.08
2022-11-27T04:51:58.300Z,5.05
2022-11-27T04:52:58.300Z,5.05
2022-11-27T04:53:58.278Z,5.04
2022-11-27T04:55:00.278Z,5.02
2022-11-27T04:55:58.270Z,5.02
2022-11-27T04:56:58.273Z,5.01
2022-11-27T04:57:58.276Z,5.01
2022-11-27T04:58:58.210Z,5.01
2022-11-27T04:59:58.244Z,5.02
2022-11-27T05:00:58.241Z,5.01
2022-11-27T05:01:58.267Z,5.01
2022-11-27T05:02:58.250Z,5.01
2022-11-27T05:03:58.186Z,5.02
2022-11-27T05:04:58.196Z,5.04
2022-11-27T05:05:58.149Z,5.04
2022-11-27T05:06:58.156Z,5.04
2022-11-27T05:07:58.223Z,5.02
2022-11-27T05:08:58.197Z,5.04
2022-11-27T05:09:58.148Z,5.02
2022-11-27T05:10:58.162Z,5.04
2022-11-27T05:11:58.080Z,5.05
2022-11-27T05:12:58.055Z,5.07
2022-11-27T05:13:58.061Z,5.10
2022-11-27T05:15:01.835Z,5.08
2022-11-27T05:15:58.167Z,5.12
2022-11-27T05:16:58.020Z,5.12
2022-11-27T05:17:58.007Z,5.13
2022-11-27T05:18:58.002Z,5.18
2022-11-27T05:19:58.001Z,5.18
2022-11-27T05:20:58.118Z,5.19
2022-11-27T05:21:58.031Z,5.19
2022-11-27T05:22:57.954Z,5.20
2022-11-27T05:23:57.938Z,5.22
2022-11-27T05:24:57.985Z,5.23
2022-11-27T05:25:57.919Z,5.23
2022-11-27T05:26:57.933Z,5.25
2022-11-27T05:27:57.897Z,5.26
2022-11-27T05:28:57.967Z,5.28
2022-11-27T05:29:57.872Z,5.29
2022-11-27T05:30:57.934Z,5.29
2022-11-27T05:31:57.886Z,5.31
2022-11-27T05:32:57.910Z,5.31
2022-11-27T05:33:58.037Z,5.29
2022-11-27T05:34:57.877Z,5.33
2022-11-27T05:35:57.955Z,5.33
2022-11-27T05:36:57.787Z,5.34
2022-11-27T05:37:57.867Z,5.34
2022-11-27T05:38:57.792Z,5.34
2022-11-27T05:39:57.807Z,5.34
2022-11-27T05:40:57.748Z,5.36
2022-11-27T05:41:57.754Z,5.36
2022-11-27T05:42:57.711Z,5.36
2022-11-27T05:43:57.754Z,5.36
2022-11-27T05:44:58.665Z,5.36
2022-11-27T05:45:57.696Z,5.37
2022-11-27T05:46:57.714Z,5.37
2022-11-27T05:47:57.675Z,5.38
2022-11-27T05:48:57.703Z,5.38
2022-11-27T05:49:57.637Z,5.38
2022-11-27T05:50:58.517Z,5.40
2022-11-27T05:51:57.629Z,5.40
2022-11-27T05:52:57.824Z,5.38
2022-11-27T05:53:57.642Z,5.38
2022-11-27T05:54:57.621Z,5.40
2022-11-27T05:55:57.629Z,5.41
2022-11-27T05:56:57.568Z,5.41
2022-11-27T05:57:57.570Z,5.41
2022-11-27T05:58:57.571Z,5.40
2022-11-27T05:59:57.540Z,5.40
2022-11-27T06:00:57.518Z,5.41
2022-11-27T06:01:57.585Z,5.41
2022-11-27T06:02:57.573Z,5.41
2022-11-27T06:03:57.540Z,5.41
2022-11-27T06:04:57.473Z,5.43
2022-11-27T06:05:57.469Z,5.43
2022-11-27T06:06:57.461Z,5.43
2022-11-27T06:07:57.591Z,5.43
2022-11-27T06:08:57.434Z,5.43
2022-11-27T06:09:57.427Z,5.44
2022-11-27T06:10:57.400Z,5.44
2022-11-27T06:11:57.480Z,5.44
2022-11-27T06:12:57.386Z,5.44
2022-11-27T06:13:57.388Z,5.44
2022-11-27T06:14:57.391Z,5.46
2022-11-27T06:15:57.389Z,5.44
2022-11-27T06:16:57.415Z,5.46
2022-11-27T06:17:57.373Z,5.46
2022-11-27T06:18:57.327Z,5.44
2022-11-27T06:19:57.331Z,5.46
2022-11-27T06:20:57.289Z,5.46
2022-11-27T06:21:57.334Z,5.46
2022-11-27T06:22:57.272Z,5.46
2022-11-27T06:23:57.332Z,5.46
2022-11-27T06:24:57.317Z,5.46
2022-11-27T06:25:57.336Z,5.46
2022-11-27T06:26:57.242Z,5.46
2022-11-27T06:27:57.245Z,5.46
2022-11-27T06:29:03.500Z,5.44
2022-11-27T06:30:03.528Z,5.46
2022-11-27T06:31:03.192Z,5.46
2022-11-27T06:31:57.283Z,5.46
2022-11-27T06:32:57.232Z,5.46
2022-11-27T06:33:57.161Z,5.44
2022-11-27T06:34:57.150Z,5.46
2022-11-27T06:35:57.193Z,5.46
2022-11-27T06:36:57.146Z,5.46
2022-11-27T06:37:57.106Z,5.47
2022-11-27T06:38:57.090Z,5.46
2022-11-27T06:39:57.084Z,5.46
2022-11-27T06:40:57.079Z,5.44
2022-11-27T06:41:57.106Z,5.44
2022-11-27T06:42:57.031Z,5.44
2022-11-27T06:43:57.068Z,5.44
2022-11-27T06:44:57.019Z,5.44
2022-11-27T06:45:57.075Z,5.43
2022-11-27T06:46:57.007Z,5.43
2022-11-27T06:47:57.048Z,5.41
2022-11-27T06:48:57.014Z,5.43
2022-11-27T06:49:56.975Z,5.40
2022-11-27T06:50:56.973Z,5.40
2022-11-27T06:51:56.992Z,5.38
2022-11-27T06:52:56.928Z,5.38
2022-11-27T06:53:56.925Z,5.37
2022-11-27T06:54:56.905Z,5.38
2022-11-27T06:55:56.914Z,5.36
2022-11-27T06:56:56.923Z,5.37
2022-11-27T06:57:56.997Z,5.36
2022-11-27T06:58:56.857Z,5.34
2022-11-27T06:59:56.862Z,5.34
2022-11-27T07:00:56.874Z,5.33
2022-11-27T07:01:56.890Z,5.33
2022-11-27T07:02:56.907Z,5.31
2022-11-27T07:03:57.581Z,5.31
2022-11-27T07:04:56.790Z,5.31
2022-11-27T07:05:56.792Z,5.31
2022-11-27T07:06:56.773Z,5.29
2022-11-27T07:07:56.769Z,5.33
2022-11-27T07:08:56.803Z,5.33
2022-11-27T07:09:56.755Z,5.31
2022-11-27T07:10:56.746Z,5.33
2022-11-27T07:11:56.734Z,5.33
2022-11-27T07:12:56.797Z,5.33
2022-11-27T07:13:56.754Z,5.33
2022-11-27T07:14:58.164Z,5.31
2022-11-27T07:15:56.723Z,5.31
2022-11-27T07:16:56.737Z,5.33
2022-11-27T07:17:56.715Z,5.34
2022-11-27T07:18:56.674Z,5.34
2022-11-27T07:19:56.632Z,5.34
2022-11-27T07:20:56.953Z,5.34
2022-11-27T07:21:56.619Z,5.36
2022-11-27T07:22:56.642Z,5.36
2022-11-27T07:23:56.633Z,5.36
2022-11-27T07:24:56.579Z,5.36
2022-11-27T07:25:56.583Z,5.36
2022-11-27T07:26:56.557Z,5.37
2022-11-27T07:27:56.548Z,5.38
2022-11-27T07:28:56.567Z,5.37
2022-11-27T07:29:56.538Z,5.37
2022-11-27T07:30:56.507Z,5.37
2022-11-27T07:31:56.596Z,5.37
2022-11-27T07:32:56.475Z,5.38
2022-11-27T07:33:56.610Z,5.38
2022-11-27T07:34:56.464Z,5.38
2022-11-27T07:35:56.495Z,5.37
2022-11-27T07:36:56.439Z,5.37
2022-11-27T07:37:56.446Z,5.37
2022-11-27T07:38:56.473Z,5.37
2022-11-27T07:40:04.735Z,5.38
2022-11-27T07:40:56.406Z,5.38
2022-11-27T07:41:59.814Z,5.38
2022-11-27T07:42:56.373Z,5.38
2022-11-27T07:43:56.412Z,5.40
2022-11-27T07:44:56.411Z,5.40
2022-11-27T07:45:56.413Z,5.40
2022-11-27T07:46:56.338Z,5.40
2022-11-27T07:47:56.372Z,5.40
2022-11-27T07:48:56.298Z,5.38
2022-11-27T07:49:56.337Z,5.38
2022-11-27T07:50:56.321Z,5.40
2022-11-27T07:51:56.294Z,5.40
2022-11-27T07:52:56.282Z,5.41
2022-11-27T07:53:56.269Z,5.41
2022-11-27T07:54:56.572Z,5.43
2022-11-27T07:55:56.258Z,5.43
2022-11-27T07:56:56.219Z,5.44
2022-11-27T07:57:56.241Z,5.44
2022-11-27T07:58:56.237Z,5.46
2022-11-27T07:59:56.245Z,5.47
2022-11-27T08:00:56.238Z,5.51
2022-11-27T08:01:56.290Z,5.52
2022-11-27T08:02:56.144Z,5.52
2022-11-27T08:03:56.175Z,5.55
2022-11-27T08:04:56.236Z,5.56
2022-11-27T08:05:56.144Z,5.58
2022-11-27T08:06:56.156Z,5.58
2022-11-27T08:07:56.339Z,5.61
2022-11-27T08:08:56.176Z,5.67
2022-11-27T08:09:56.099Z,5.65
2022-11-27T08:10:56.079Z,5.67
2022-11-27T08:11:56.980Z,5.70
2022-11-27T08:12:56.075Z,5.73
2022-11-27T08:13:56.035Z,5.76
2022-11-27T08:14:56.027Z,5.77
2022-11-27T08:15:56.112Z,5.80
2022-11-27T08:16:56.265Z,5.81
2022-11-27T08:17:55.995Z,5.87
2022-11-27T08:18:55.979Z,5.87
2022-11-27T08:19:56.228Z,5.84
2022-11-27T08:20:55.964Z,5.87
2022-11-27T08:21:56.007Z,5.83
2022-11-27T08:23:01.131Z,5.81
2022-11-27T08:23:55.937Z,5.83
2022-11-27T08:24:55.909Z,5.80
2022-11-27T08:25:55.946Z,5.79
2022-11-27T08:26:56.059Z,5.79
2022-11-27T08:27:55.864Z,5.79
2022-11-27T08:28:55.860Z,5.77
2022-11-27T08:29:55.843Z,5.76
2022-11-27T08:30:55.891Z,5.76
2022-11-27T08:31:55.882Z,5.77
2022-11-27T08:32:55.862Z,5.77
2022-11-27T08:33:55.820Z,5.79
2022-11-27T08:34:56.625Z,5.77
2022-11-27T08:35:55.849Z,5.79
2022-11-27T08:36:55.862Z,5.79
2022-11-27T08:37:55.767Z,5.80
2022-11-27T08:38:55.985Z,5.79
2022-11-27T08:39:55.729Z,5.80
2022-11-27T08:40:55.855Z,5.81
2022-11-27T08:41:55.823Z,5.84
2022-11-27T08:42:55.815Z,5.84
2022-11-27T08:43:55.772Z,5.87
2022-11-27T08:44:55.956Z,5.90
2022-11-27T08:45:56.016Z,5.88
2022-11-27T08:46:55.854Z,5.88
2022-11-27T08:47:55.959Z,5.87
2022-11-27T08:48:56.132Z,5.88
2022-11-27T08:49:55.936Z,5.90
2022-11-27T08:50:55.786Z,5.91
2022-11-27T08:51:55.826Z,5.92
2022-11-27T08:52:55.603Z,5.94
2022-11-27T08:53:55.761Z,5.95
2022-11-27T08:54:57.710Z,5.95
2022-11-27T08:55:55.596Z,5.98
2022-11-27T08:56:55.554Z,6.01
2022-11-27T08:57:56.098Z,6.02
2022-11-27T08:58:55.585Z,6.05
2022-11-27T08:59:55.539Z,6.05
2022-11-27T09:00:55.582Z,6.06
2022-11-27T09:01:55.549Z,6.05
2022-11-27T09:02:55.492Z,6.02
2022-11-27T09:03:55.639Z,6.06
2022-11-27T09:04:55.467Z,6.07
2022-11-27T09:05:55.488Z,6.09
2022-11-27T09:06:58.757Z,6.10
2022-11-27T09:07:55.518Z,6.10
2022-11-27T09:08:55.480Z,6.13
2022-11-27T09:09:55.425Z,6.16
2022-11-27T09:10:55.529Z,6.17
2022-11-27T09:11:56.095Z,6.19
2022-11-27T09:12:55.388Z,6.22
2022-11-27T09:13:55.408Z,6.20
2022-11-27T09:14:55.428Z,6.20
2022-11-27T09:15:55.326Z,6.25
2022-11-27T09:16:55.566Z,6.25
2022-11-27T09:17:55.320Z,6.28
2022-11-27T09:18:55.331Z,6.28
2022-11-27T09:19:57.134Z,6.26
2022-11-27T09:20:55.351Z,6.26
2022-11-27T09:21:55.261Z,6.26
2022-11-27T09:22:55.527Z,6.28
2022-11-27T09:23:55.363Z,6.31
2022-11-27T09:24:55.255Z,6.31
2022-11-27T09:25:55.299Z,6.31
2022-11-27T09:26:55.235Z,6.31
2022-11-27T09:27:55.209Z,6.31
2022-11-27T09:28:55.224Z,6.29
2022-11-27T09:29:55.171Z,6.29
2022-11-27T09:30:55.226Z,6.28
2022-11-27T09:31:55.199Z,6.31
2022-11-27T09:32:55.209Z,6.28
2022-11-27T09:33:55.154Z,6.31
2022-11-27T09:34:55.162Z,6.28
2022-11-27T09:35:55.122Z,6.28
2022-11-27T09:36:55.124Z,6.29
2022-11-27T09:37:55.590Z,6.29
2022-11-27T09:38:55.166Z,6.29
2022-11-27T09:39:55.604Z,6.28
2022-11-27T09:40:59.209Z,6.29
2022-11-27T09:41:55.109Z,6.29
2022-11-27T09:42:55.114Z,6.29
2022-11-27T09:43:55.020Z,6.28
2022-11-27T09:44:55.207Z,6.28
2022-11-27T09:45:55.232Z,6.28
2022-11-27T09:46:55.113Z,6.25
2022-11-27T09:47:54.980Z,6.25
2022-11-27T09:48:55.015Z,6.25
2022-11-27T09:49:54.957Z,6.25
2022-11-27T09:50:55.059Z,6.26
2022-11-27T09:51:55.016Z,6.28
2022-11-27T09:52:54.975Z,6.28
2022-11-27T09:53:54.935Z,6.28
2022-11-27T09:54:54.960Z,6.29
2022-11-27T09:55:55.590Z,6.31
2022-11-27T09:56:54.892Z,6.34
2022-11-27T09:57:54.844Z,6.34
2022-11-27T09:58:54.876Z,6.38
2022-11-27T09:59:54.903Z,6.38
2022-11-27T10:00:54.868Z,6.39
2022-11-27T10:01:54.986Z,6.41
2022-11-27T10:02:54.994Z,6.41
2022-11-27T10:03:54.786Z,6.46
2022-11-27T10:05:54.805Z,6.49
2022-11-27T10:06:54.784Z,6.50
2022-11-27T10:07:55.259Z,6.50
2022-11-27T10:08:54.767Z,6.53
2022-11-27T10:09:54.823Z,6.54
2022-11-27T10:10:54.726Z,6.54
2022-11-27T10:11:54.703Z,6.54
2022-11-27T10:12:54.949Z,6.57
2022-11-27T10:13:54.686Z,6.57
2022-11-27T10:14:54.693Z,6.59
2022-11-27T10:15:54.740Z,6.59
2022-11-27T10:16:54.851Z,6.60
2022-11-27T10:17:54.638Z,6.59
2022-11-27T10:18:54.664Z,6.60
2022-11-27T10:19:54.623Z,6.65
2022-11-27T10:20:54.655Z,6.67
2022-11-27T10:21:54.594Z,6.67
2022-11-27T10:22:54.643Z,6.70
2022-11-27T10:23:54.595Z,6.68
2022-11-27T10:24:54.651Z,6.70
2022-11-27T10:25:54.657Z,6.70
2022-11-27T10:26:54.551Z,6.72
2022-11-27T10:27:54.559Z,6.72
2022-11-27T10:28:54.509Z,6.75
2022-11-27T10:29:54.515Z,6.78
2022-11-27T10:30:54.518Z,6.75
2022-11-27T10:31:54.549Z,6.78
2022-11-27T10:32:55.774Z,6.78
2022-11-27T10:33:54.488Z,6.77
2022-11-27T10:34:54.531Z,6.77
2022-11-27T10:35:54.423Z,6.75
2022-11-27T10:36:54.441Z,6.74
2022-11-27T10:37:54.725Z,6.72
2022-11-27T10:38:54.444Z,6.72
2022-11-27T10:39:54.371Z,6.71
2022-11-27T10:41:00.553Z,6.71
2022-11-27T10:41:54.369Z,6.71
2022-11-27T10:42:54.381Z,6.70
2022-11-27T10:43:54.365Z,6.71
2022-11-27T10:44:54.365Z,6.70
2022-11-27T10:45:54.422Z,6.68
2022-11-27T10:46:54.304Z,6.68
2022-11-27T10:47:54.335Z,6.67
2022-11-27T10:48:54.461Z,6.68
2022-11-27T10:49:54.271Z,6.70
2022-11-27T10:50:54.281Z,6.70
2022-11-27T10:51:54.246Z,6.70
2022-11-27T10:52:54.558Z,6.68
2022-11-27T10:53:54.285Z,6.70
2022-11-27T10:54:54.283Z,6.71
2022-11-27T10:55:55.267Z,6.70
2022-11-27T10:56:54.195Z,6.70
2022-11-27T10:57:54.261Z,6.70
2022-11-27T10:58:54.213Z,6.71
2022-11-27T10:59:54.305Z,6.75
2022-11-27T11:00:54.288Z,6.77
2022-11-27T11:01:54.219Z,6.77
2022-11-27T11:02:54.168Z,6.75
2022-11-27T11:03:54.187Z,6.75
2022-11-27T11:05:16.319Z,6.77
2022-11-27T11:06:20.916Z,6.78
2022-11-27T11:06:54.091Z,6.77
2022-11-27T11:07:54.164Z,6.78
2022-11-27T11:08:58.514Z,6.78
2022-11-27T11:09:54.069Z,6.78
2022-11-27T11:10:54.081Z,6.78
2022-11-27T11:11:54.070Z,6.78
2022-11-27T11:12:54.940Z,6.82
2022-11-27T11:13:54.058Z,6.80
2022-11-27T11:14:53.987Z,6.82
2022-11-27T11:15:54.921Z,6.80
2022-11-27T11:16:54.134Z,6.80
2022-11-27T11:17:53.945Z,6.82
2022-11-27T11:18:53.953Z,6.80
2022-11-27T11:19:54.434Z,6.82
2022-11-27T11:20:53.931Z,6.78
2022-11-27T11:21:54.960Z,6.74
2022-11-27T11:22:53.927Z,6.74
2022-11-27T11:23:53.953Z,6.74
2022-11-27T11:24:53.986Z,6.74
2022-11-27T11:25:53.957Z,6.72
2022-11-27T11:26:53.933Z,6.72
2022-11-27T11:27:53.854Z,6.70
2022-11-27T11:28:53.877Z,6.70
2022-11-27T11:29:53.884Z,6.70
2022-11-27T11:30:53.834Z,6.71
2022-11-27T11:31:53.859Z,6.71
2022-11-27T11:32:53.922Z,6.71
2022-11-27T11:33:54.111Z,6.70
2022-11-27T11:34:59.223Z,6.70
2022-11-27T11:35:53.937Z,6.64
2022-11-27T11:36:53.859Z,6.67
2022-11-27T11:37:53.971Z,6.65
2022-11-27T11:38:53.738Z,6.65
2022-11-27T11:39:53.978Z,6.64
2022-11-27T11:40:53.796Z,6.64
2022-11-27T11:41:53.738Z,6.62
2022-11-27T11:42:53.823Z,6.64
2022-11-27T11:43:53.697Z,6.62
2022-11-27T11:44:53.697Z,6.57
2022-11-27T11:45:53.721Z,6.57
2022-11-27T11:46:53.686Z,6.56
2022-11-27T11:47:53.611Z,6.54
2022-11-27T11:48:53.634Z,6.57
2022-11-27T11:49:53.671Z,6.54
2022-11-27T11:50:53.617Z,6.53
2022-11-27T11:51:53.579Z,6.52
2022-11-27T11:52:53.562Z,6.54
2022-11-27T11:53:53.539Z,6.50
2022-11-27T11:54:53.532Z,6.52
2022-11-27T11:55:53.705Z,6.50
2022-11-27T11:56:53.587Z,6.53
2022-11-27T11:57:53.644Z,6.54
2022-11-27T11:58:53.542Z,6.53
2022-11-27T11:59:53.649Z,6.52
2022-11-27T12:01:19.256Z,6.52
2022-11-27T12:01:53.652Z,6.52
2022-11-27T12:02:53.542Z,6.50
2022-11-27T12:03:53.447Z,6.49
2022-11-27T12:04:53.468Z,6.50
2022-11-27T12:05:53.680Z,6.50
2022-11-27T12:06:53.561Z,6.50
2022-11-27T12:07:53.509Z,6.50
2022-11-27T12:08:53.386Z,6.53
2022-11-27T12:09:53.452Z,6.54
2022-11-27T12:10:53.448Z,6.56
2022-11-27T12:11:53.367Z,6.56
2022-11-27T12:12:53.345Z,6.57
2022-11-27T12:13:53.383Z,6.59
2022-11-27T12:14:53.312Z,6.60
2022-11-27T12:15:53.367Z,6.57
2022-11-27T12:16:54.121Z,6.59
2022-11-27T12:17:53.271Z,6.62
2022-11-27T12:18:53.249Z,6.62
2022-11-27T12:19:53.293Z,6.64
2022-11-27T12:20:53.331Z,6.65
2022-11-27T12:21:54.236Z,6.65
2022-11-27T12:22:53.274Z,6.65
2022-11-27T12:23:53.214Z,6.67
2022-11-27T12:24:53.213Z,6.68
2022-11-27T12:25:53.246Z,6.67
2022-11-27T12:26:53.237Z,6.67
2022-11-27T12:27:53.208Z,6.65
2022-11-27T12:28:58.935Z,6.68
2022-11-27T12:29:53.529Z,6.71
2022-11-27T12:30:53.203Z,6.72
2022-11-27T12:31:53.721Z,6.75
2022-11-27T12:32:53.240Z,6.77
2022-11-27T12:33:53.224Z,6.78
2022-11-27T12:34:53.202Z,6.78
2022-11-27T12:35:53.135Z,6.78
2022-11-27T12:36:53.632Z,6.80
2022-11-27T12:37:53.188Z,6.82
2022-11-27T12:38:54.111Z,6.77
2022-11-27T12:39:53.090Z,6.77
2022-11-27T12:40:53.040Z,6.82
2022-11-27T12:41:53.004Z,6.82
2022-11-27T12:42:53.075Z,6.82
2022-11-27T12:43:53.064Z,6.83
2022-11-27T12:44:53.126Z,6.85
2022-11-27T12:45:53.876Z,6.87
2022-11-27T12:46:53.127Z,6.86
2022-11-27T12:47:53.654Z,6.83
2022-11-27T12:48:53.058Z,6.85
2022-11-27T12:49:52.973Z,6.82
2022-11-27T12:50:53.068Z,6.82
2022-11-27T12:51:54.016Z,6.82
2022-11-27T12:52:53.031Z,6.82
2022-11-27T12:53:52.874Z,6.82
2022-11-27T12:54:52.919Z,6.82
2022-11-27T12:55:53.031Z,6.78
2022-11-27T12:56:53.617Z,6.80
2022-11-27T12:57:52.899Z,6.80
2022-11-27T12:58:53.396Z,6.78
2022-11-27T12:59:53.099Z,6.78
2022-11-27T13:00:52.924Z,6.77
2022-11-27T13:01:52.896Z,6.75
2022-11-27T13:02:53.014Z,6.72
2022-11-27T13:03:52.773Z,6.70
2022-11-27T13:04:52.774Z,6.70
2022-11-27T13:05:52.766Z,6.70
2022-11-27T13:06:52.871Z,6.67
2022-11-27T13:07:52.793Z,6.67
2022-11-27T13:08:52.868Z,6.67
2022-11-27T13:09:52.757Z,6.67
2022-11-27T13:10:52.688Z,6.65
2022-11-27T13:11:52.743Z,6.65
2022-11-27T13:12:52.729Z,6.64
2022-11-27T13:13:52.697Z,6.65
2022-11-27T13:14:53.627Z,6.68
2022-11-27T13:16:07.637Z,6.68
2022-11-27T13:16:53.431Z,6.68
2022-11-27T13:17:52.605Z,6.67
2022-11-27T13:18:52.627Z,6.68